Time;durP1;ratioP1;P1;durP2;ratioP2;P2;SDS_P1;SDS_P2;PMS_P1;PMS_P2;Temp;Humidity;BMP_temperature;BMP_pressure;BME280_temperature;BME280_humidity;BME280_pressure;Samples;Min_cycle;Max_cycle;Signal;HPM_P1;HPM_P2
2022/08/31 00:06:04;;;;;;;0.10;0.10;;;13.50;99.90;;;;;;4891590;29;20432;-87
2022/08/31 00:08:30;;;;;;;0.10;0.10;;;13.40;99.90;;;;;;4892163;29;20450;-86
2022/08/31 00:10:56;;;;;;;0.10;0.10;;;13.40;99.90;;;;;;4893107;29;20449;-85
2022/08/31 00:13:22;;;;;;;0.10;0.10;;;13.40;99.90;;;;;;4881294;29;21009;-86
2022/08/31 00:15:49;;;;;;;0.10;0.10;;;13.30;99.90;;;;;;4885600;29;20493;-86
2022/08/31 00:18:16;;;;;;;0.10;0.10;;;13.30;99.90;;;;;;4891936;29;20453;-86
2022/08/31 00:20:43;;;;;;;0.20;0.20;;;13.20;99.90;;;;;;4888360;29;20520;-86
2022/08/31 00:23:11;;;;;;;0.10;0.10;;;13.20;99.90;;;;;;4891609;29;20517;-86
2022/08/31 00:25:41;;;;;;;0.10;0.10;;;13.20;99.90;;;;;;4890137;29;20457;-87
2022/08/31 00:28:08;;;;;;;0.10;0.10;;;13.10;99.90;;;;;;4891168;29;20468;-86
2022/08/31 00:30:34;;;;;;;0.10;0.10;;;13.10;99.90;;;;;;4888463;29;20452;-86
2022/08/31 00:33:00;;;;;;;0.10;0.10;;;13.10;99.90;;;;;;4887056;29;20463;-86
2022/08/31 00:35:28;;;;;;;0.10;0.10;;;13.50;99.90;;;;;;4889010;29;20481;-86
2022/08/31 00:37:53;;;;;;;0.13;0.13;;;13.60;99.90;;;;;;4890227;29;20452;-86
2022/08/31 00:40:19;;;;;;;0.10;0.10;;;13.40;99.90;;;;;;4884192;29;20457;-86
2022/08/31 00:42:45;;;;;;;0.10;0.10;;;13.20;99.90;;;;;;4887831;29;20192;-86
2022/08/31 00:45:11;;;;;;;0.10;0.10;;;13.10;99.90;;;;;;4884395;29;20505;-85
2022/08/31 00:47:36;;;;;;;0.10;0.10;;;13.00;99.90;;;;;;4891008;29;20666;-86
2022/08/31 00:50:06;;;;;;;0.10;0.10;;;13.00;99.90;;;;;;4890438;29;20464;-85
2022/08/31 00:52:36;;;;;;;0.10;0.10;;;12.90;99.90;;;;;;4891331;29;20725;-86
2022/08/31 00:55:19;;;;;;;0.10;0.10;;;12.90;99.90;;;;;;4891079;29;20500;-86
2022/08/31 00:57:48;;;;;;;0.10;0.10;;;12.80;99.90;;;;;;4887029;29;20441;-86
2022/08/31 01:00:19;;;;;;;0.10;0.10;;;12.80;99.90;;;;;;4888529;29;20468;-85
2022/08/31 01:02:45;;;;;;;0.10;0.10;;;12.70;99.90;;;;;;4887442;29;20531;-86
2022/08/31 01:05:12;;;;;;;0.10;0.10;;;12.70;99.90;;;;;;4888430;29;20539;-86
2022/08/31 01:07:38;;;;;;;0.10;0.10;;;12.70;99.90;;;;;;4892203;29;20208;-87
2022/08/31 01:10:05;;;;;;;0.20;0.20;;;12.70;99.90;;;;;;4894793;29;20465;-86
2022/08/31 01:12:31;;;;;;;0.13;0.13;;;12.70;99.90;;;;;;4891109;29;20545;-86
2022/08/31 01:14:58;;;;;;;0.10;0.10;;;12.60;99.90;;;;;;4894731;29;20580;-86
2022/08/31 01:17:24;;;;;;;0.10;0.10;;;12.70;99.90;;;;;;4890292;29;20201;-84
2022/08/31 01:20:10;;;;;;;0.20;0.20;;;12.60;99.90;;;;;;4893283;29;20520;-86
2022/08/31 01:22:50;;;;;;;0.10;0.10;;;12.60;99.90;;;;;;4890775;29;20190;-85
2022/08/31 01:25:17;;;;;;;0.10;0.10;;;12.60;99.90;;;;;;4892560;29;20476;-86
2022/08/31 01:27:43;;;;;;;0.10;0.10;;;12.60;99.90;;;;;;4893726;29;20464;-85
2022/08/31 01:30:18;;;;;;;0.10;0.10;;;12.60;99.90;;;;;;4894060;29;20492;-86
2022/08/31 01:32:44;;;;;;;0.10;0.10;;;12.50;99.90;;;;;;4892230;29;20460;-86
2022/08/31 01:35:09;;;;;;;0.10;0.10;;;12.50;99.90;;;;;;4895406;29;20930;-87
2022/08/31 01:37:35;;;;;;;0.10;0.10;;;12.50;99.90;;;;;;4897034;29;20189;-86
2022/08/31 01:40:00;;;;;;;0.10;0.10;;;12.50;99.90;;;;;;4898470;29;20197;-86
2022/08/31 01:42:26;;;;;;;0.10;0.10;;;12.40;99.90;;;;;;4891500;29;20205;-86
2022/08/31 01:44:51;;;;;;;0.10;0.10;;;12.30;99.90;;;;;;4894340;29;20677;-87
2022/08/31 01:47:17;;;;;;;0.10;0.10;;;12.30;99.90;;;;;;4893953;29;20209;-86
2022/08/31 01:49:43;;;;;;;0.10;0.10;;;12.20;99.90;;;;;;4892572;29;20212;-86
2022/08/31 01:52:08;;;;;;;0.10;0.10;;;12.20;99.90;;;;;;4894122;29;20935;-86
2022/08/31 01:54:34;;;;;;;0.20;0.20;;;12.10;99.90;;;;;;4890024;29;20232;-86
2022/08/31 01:57:00;;;;;;;0.20;0.20;;;12.10;99.90;;;;;;4894578;29;20220;-86
2022/08/31 01:59:26;;;;;;;0.10;0.10;;;12.20;99.90;;;;;;4894998;29;20612;-86
2022/08/31 02:01:54;;;;;;;0.20;0.20;;;12.10;99.90;;;;;;4894026;29;20495;-86
2022/08/31 02:04:23;;;;;;;0.20;0.20;;;12.10;99.90;;;;;;4891974;29;20969;-85
2022/08/31 02:06:51;;;;;;;0.17;0.17;;;12.10;99.90;;;;;;4892846;29;20568;-86
2022/08/31 02:09:17;;;;;;;0.10;0.10;;;12.10;99.90;;;;;;4887101;29;20553;-86
2022/08/31 02:11:43;;;;;;;0.20;0.20;;;12.00;99.90;;;;;;4893505;29;20564;-86
2022/08/31 02:14:09;;;;;;;0.20;0.20;;;11.90;99.90;;;;;;4894831;29;20981;-86
2022/08/31 02:16:35;;;;;;;0.20;0.20;;;11.80;99.90;;;;;;4883820;29;20267;-86
2022/08/31 02:19:02;;;;;;;0.10;0.10;;;11.80;99.90;;;;;;4891109;29;20980;-86
2022/08/31 02:21:28;;;;;;;0.10;0.10;;;11.90;99.90;;;;;;4894710;29;20468;-87
2022/08/31 02:23:54;;;;;;;0.20;0.20;;;12.00;99.90;;;;;;4889157;29;20462;-85
2022/08/31 02:26:20;;;;;;;0.10;0.10;;;12.10;99.90;;;;;;4887059;29;20198;-85
2022/08/31 02:28:46;;;;;;;0.10;0.10;;;12.00;99.90;;;;;;4893047;29;20197;-86
2022/08/31 02:31:11;;;;;;;0.20;0.20;;;11.90;99.90;;;;;;4886759;29;20193;-86
2022/08/31 02:33:37;;;;;;;0.20;0.20;;;11.90;99.90;;;;;;4893992;29;20452;-86
2022/08/31 02:36:03;;;;;;;0.20;0.20;;;11.80;99.90;;;;;;4910700;29;20646;-86
2022/08/31 02:38:30;;;;;;;0.20;0.20;;;11.80;99.90;;;;;;4892950;29;20205;-87
2022/08/31 02:40:56;;;;;;;0.20;0.20;;;11.80;99.90;;;;;;4892113;29;20201;-87
2022/08/31 02:43:21;;;;;;;0.20;0.20;;;11.70;99.90;;;;;;4892124;29;20517;-86
2022/08/31 02:45:47;;;;;;;0.20;0.20;;;11.70;99.90;;;;;;4896293;29;20193;-86
2022/08/31 02:48:13;;;;;;;0.20;0.20;;;11.70;99.90;;;;;;4891951;29;20340;-86
2022/08/31 02:50:45;;;;;;;0.20;0.20;;;11.80;99.90;;;;;;4894961;29;20264;-86
2022/08/31 02:53:11;;;;;;;0.20;0.20;;;11.80;99.90;;;;;;4893816;29;20192;-86
2022/08/31 02:55:37;;;;;;;0.10;0.10;;;11.70;99.90;;;;;;4893350;29;20552;-86
2022/08/31 02:58:03;;;;;;;0.20;0.20;;;11.70;99.90;;;;;;4892634;29;20441;-86
2022/08/31 03:00:29;;;;;;;0.10;0.10;;;11.70;99.90;;;;;;4893300;29;20233;-86
2022/08/31 03:02:56;;;;;;;0.10;0.10;;;11.70;99.90;;;;;;4893600;29;20456;-85
2022/08/31 03:05:22;;;;;;;0.20;0.20;;;11.70;99.90;;;;;;4892439;29;20494;-85
2022/08/31 03:07:51;;;;;;;0.20;0.20;;;11.70;99.90;;;;;;4893609;29;22482;-86
2022/08/31 03:10:19;;;;;;;0.20;0.20;;;11.60;99.90;;;;;;4894177;29;20457;-85
2022/08/31 03:12:47;;;;;;;0.20;0.20;;;11.70;99.90;;;;;;4889058;29;20969;-86
2022/08/31 03:15:13;;;;;;;0.20;0.20;;;11.60;99.90;;;;;;4894071;29;20505;-86
2022/08/31 03:17:39;;;;;;;0.20;0.20;;;11.60;99.90;;;;;;4892544;29;20512;-85
2022/08/31 03:20:06;;;;;;;0.20;0.20;;;11.50;99.90;;;;;;4890764;29;20453;-86
2022/08/31 03:22:32;;;;;;;0.20;0.20;;;11.40;99.90;;;;;;4894326;29;20280;-86
2022/08/31 03:24:58;;;;;;;0.20;0.20;;;11.40;99.90;;;;;;4904111;29;20484;-86
2022/08/31 03:27:25;;;;;;;0.20;0.20;;;11.30;99.90;;;;;;4893639;29;20890;-85
2022/08/31 03:29:52;;;;;;;0.20;0.20;;;11.40;99.90;;;;;;4891534;29;20461;-86
2022/08/31 03:32:18;;;;;;;0.20;0.20;;;11.30;99.90;;;;;;4881209;29;20535;-86
2022/08/31 03:34:43;;;;;;;0.20;0.20;;;11.30;99.90;;;;;;4891396;29;20488;-87
2022/08/31 03:37:09;;;;;;;0.20;0.20;;;11.30;99.90;;;;;;4891873;29;20457;-85
2022/08/31 03:39:34;;;;;;;0.20;0.20;;;11.30;99.90;;;;;;4882910;29;20201;-86
2022/08/31 03:42:00;;;;;;;0.20;0.20;;;11.30;99.90;;;;;;4888741;29;20199;-86
2022/08/31 03:44:25;;;;;;;0.20;0.20;;;11.30;99.90;;;;;;4889516;29;20197;-86
2022/08/31 03:46:54;;;;;;;0.20;0.20;;;11.30;99.90;;;;;;4882647;29;21224;-86
2022/08/31 03:49:23;;;;;;;0.20;0.20;;;11.30;99.90;;;;;;4886964;29;20661;-86
2022/08/31 03:51:48;;;;;;;0.20;0.20;;;11.20;99.90;;;;;;4887406;29;20453;-86
2022/08/31 03:54:14;;;;;;;0.20;0.20;;;11.20;99.90;;;;;;4892837;29;20497;-86
2022/08/31 03:56:40;;;;;;;0.17;0.17;;;11.20;99.90;;;;;;4892260;29;20280;-86
2022/08/31 03:59:06;;;;;;;0.20;0.20;;;11.20;99.90;;;;;;4886329;29;20646;-86
2022/08/31 04:01:34;;;;;;;0.20;0.20;;;11.30;99.90;;;;;;4890241;29;20456;-85
2022/08/31 04:04:00;;;;;;;0.20;0.20;;;11.20;99.90;;;;;;4885712;29;20450;-87
2022/08/31 04:06:26;;;;;;;0.20;0.20;;;11.10;99.90;;;;;;4893734;29;20457;-86
2022/08/31 04:08:51;;;;;;;0.20;0.20;;;11.10;99.90;;;;;;4892349;29;20189;-86
2022/08/31 04:11:18;;;;;;;0.20;0.20;;;11.00;99.90;;;;;;4887894;29;20232;-85
2022/08/31 04:13:44;;;;;;;0.20;0.20;;;11.00;99.90;;;;;;4891064;29;20193;-86
2022/08/31 04:16:12;;;;;;;0.20;0.20;;;11.10;99.90;;;;;;4889679;29;20977;-85
2022/08/31 04:18:40;;;;;;;0.20;0.20;;;11.10;99.90;;;;;;4890459;29;20540;-85
2022/08/31 04:21:18;;;;;;;0.20;0.20;;;11.00;99.90;;;;;;4893003;29;20837;-86
2022/08/31 04:23:44;;;;;;;0.20;0.20;;;10.90;99.90;;;;;;4892185;29;20493;-86
2022/08/31 04:26:23;;;;;;;0.20;0.20;;;11.00;99.90;;;;;;4891176;29;20451;-86
2022/08/31 04:28:50;;;;;;;0.20;0.20;;;11.00;99.90;;;;;;4891163;29;20192;-86
2022/08/31 04:31:16;;;;;;;0.20;0.20;;;11.00;99.90;;;;;;4884591;29;20560;-86
2022/08/31 04:33:42;;;;;;;0.20;0.20;;;11.00;99.90;;;;;;4892536;29;20450;-86
2022/08/31 04:36:14;;;;;;;0.20;0.20;;;11.10;99.90;;;;;;4891935;29;21055;-86
2022/08/31 04:38:43;;;;;;;0.20;0.20;;;10.90;99.90;;;;;;4892561;29;20485;-85
2022/08/31 04:41:11;;;;;;;0.10;0.10;;;10.90;99.90;;;;;;4888077;29;20461;-86
2022/08/31 04:43:38;;;;;;;0.20;0.20;;;10.90;99.90;;;;;;4892458;29;20548;-85
2022/08/31 04:46:05;;;;;;;0.20;0.20;;;10.90;99.90;;;;;;4895206;29;20448;-85
2022/08/31 04:48:32;;;;;;;0.20;0.20;;;10.90;99.90;;;;;;4912709;29;20484;-86
2022/08/31 04:51:02;;;;;;;0.20;0.20;;;11.00;99.90;;;;;;4900562;29;20445;-85
2022/08/31 04:53:27;;;;;;;0.20;0.20;;;10.90;99.90;;;;;;4895868;29;20455;-86
2022/08/31 04:55:53;;;;;;;0.20;0.20;;;10.80;99.90;;;;;;4886190;29;20494;-85
2022/08/31 04:58:19;;;;;;;0.20;0.20;;;10.80;99.90;;;;;;4887916;29;20199;-85
2022/08/31 05:00:45;;;;;;;0.20;0.20;;;10.90;99.90;;;;;;4891588;29;20729;-85
2022/08/31 05:03:11;;;;;;;0.20;0.20;;;10.90;99.90;;;;;;4893237;29;20197;-86
2022/08/31 05:05:40;;;;;;;0.20;0.20;;;11.00;99.90;;;;;;4894299;29;20445;-86
2022/08/31 05:08:06;;;;;;;0.20;0.20;;;10.90;99.90;;;;;;4892184;29;20221;-85
2022/08/31 05:10:31;;;;;;;0.20;0.20;;;10.90;99.90;;;;;;4893128;29;20511;-86
2022/08/31 05:12:57;;;;;;;0.20;0.20;;;11.00;99.90;;;;;;4896649;29;21016;-85
2022/08/31 05:15:22;;;;;;;0.20;0.20;;;10.90;99.90;;;;;;4896461;29;20271;-85
2022/08/31 05:17:48;;;;;;;0.20;0.20;;;11.00;99.90;;;;;;4897791;29;20685;-86
2022/08/31 05:20:13;;;;;;;0.20;0.20;;;11.00;99.90;;;;;;4895616;29;20667;-86
2022/08/31 05:22:39;;;;;;;0.20;0.20;;;11.10;99.90;;;;;;4897883;29;20204;-85
2022/08/31 05:25:06;;;;;;;0.20;0.20;;;11.10;99.90;;;;;;4892497;29;20201;-86
2022/08/31 05:27:33;;;;;;;0.20;0.20;;;11.20;99.90;;;;;;4897941;29;20955;-85
2022/08/31 05:29:59;;;;;;;0.10;0.10;;;11.30;99.90;;;;;;4896199;29;20453;-85
2022/08/31 05:32:24;;;;;;;0.20;0.20;;;11.40;99.90;;;;;;4892370;29;21283;-85
2022/08/31 05:34:50;;;;;;;0.20;0.20;;;11.50;99.90;;;;;;4899456;29;20276;-84
2022/08/31 05:37:16;;;;;;;0.20;0.20;;;11.60;99.90;;;;;;4893611;29;20197;-86
2022/08/31 05:39:42;;;;;;;0.20;0.20;;;11.60;99.90;;;;;;4899528;29;20492;-86
2022/08/31 05:42:08;;;;;;;0.20;0.20;;;11.80;99.90;;;;;;4898906;29;20209;-86
2022/08/31 05:44:34;;;;;;;0.20;0.20;;;11.90;99.90;;;;;;4896718;29;20810;-86
2022/08/31 05:47:00;;;;;;;0.20;0.20;;;11.90;99.90;;;;;;4894794;29;20192;-85
2022/08/31 05:49:25;;;;;;;0.20;0.20;;;12.00;99.90;;;;;;4900068;29;20417;-86
2022/08/31 05:51:51;;;;;;;0.10;0.10;;;12.20;99.90;;;;;;4898759;29;20245;-86
2022/08/31 05:54:16;;;;;;;0.10;0.10;;;12.30;99.90;;;;;;4897808;29;20220;-86
2022/08/31 05:56:43;;;;;;;0.10;0.10;;;12.40;99.90;;;;;;4896001;29;20290;-86
2022/08/31 05:59:10;;;;;;;0.10;0.10;;;12.50;99.90;;;;;;4908457;29;20191;-85
2022/08/31 06:01:38;;;;;;;0.10;0.10;;;12.60;99.90;;;;;;4895414;29;20450;-86
2022/08/31 06:04:05;;;;;;;0.10;0.10;;;12.70;99.90;;;;;;4897247;29;20437;-86
2022/08/31 06:06:31;;;;;;;0.10;0.10;;;12.80;99.90;;;;;;4894607;29;20517;-87
2022/08/31 06:08:57;;;;;;;0.20;0.20;;;13.00;99.90;;;;;;4888056;29;20963;-86
2022/08/31 06:11:26;;;;;;;0.20;0.20;;;13.10;99.90;;;;;;4880319;29;20190;-86
2022/08/31 06:13:54;;;;;;;0.10;0.10;;;13.20;99.90;;;;;;4886438;29;20874;-86
2022/08/31 06:16:21;;;;;;;0.10;0.10;;;13.40;99.90;;;;;;4893144;29;21009;-86
2022/08/31 06:18:49;;;;;;;0.10;0.10;;;13.50;99.90;;;;;;4894158;29;20975;-86
2022/08/31 06:21:17;;;;;;;0.10;0.10;;;13.70;99.90;;;;;;4893913;29;20461;-88
2022/08/31 06:23:43;;;;;;;0.10;0.10;;;13.90;99.90;;;;;;4892490;29;20493;-88
2022/08/31 06:26:13;;;;;;;0.10;0.10;;;14.00;99.90;;;;;;4897360;29;20453;-88
2022/08/31 06:28:40;;;;;;;0.10;0.10;;;14.20;99.90;;;;;;4891441;29;20185;-89
2022/08/31 06:31:10;;;;;;;0.10;0.10;;;14.30;99.90;;;;;;4888279;29;20603;-89
2022/08/31 06:33:37;;;;;;;0.10;0.10;;;14.40;99.90;;;;;;4896061;29;20985;-89
2022/08/31 06:36:03;;;;;;;0.10;0.10;;;14.50;99.90;;;;;;4893952;29;20454;-90
2022/08/31 06:38:28;;;;;;;0.10;0.10;;;14.70;99.90;;;;;;4889175;29;20532;-89
2022/08/31 06:40:54;;;;;;;0.10;0.10;;;14.90;99.90;;;;;;4908812;29;20897;-88
2022/08/31 06:43:19;;;;;;;0.10;0.10;;;15.00;99.90;;;;;;4891714;29;21128;-89
2022/08/31 06:45:45;;;;;;;0.10;0.10;;;15.10;99.90;;;;;;4906571;29;20196;-89
2022/08/31 06:48:10;;;;;;;0.10;0.10;;;15.20;99.90;;;;;;4891056;29;20193;-90
2022/08/31 06:50:39;;;;;;;0.10;0.10;;;15.40;99.90;;;;;;4896552;29;20594;-89
2022/08/31 06:53:04;;;;;;;0.10;0.10;;;15.40;99.90;;;;;;4906434;29;20739;-88
2022/08/31 06:55:30;;;;;;;0.10;0.10;;;15.60;99.90;;;;;;4894630;29;20580;-88
2022/08/31 06:57:55;;;;;;;0.10;0.10;;;15.70;99.90;;;;;;4892418;29;20276;-89
2022/08/31 07:00:21;;;;;;;0.10;0.10;;;15.90;99.90;;;;;;4888399;29;20353;-89
2022/08/31 07:02:46;;;;;;;0.10;0.10;;;16.00;99.90;;;;;;4891523;29;20197;-89
2022/08/31 07:05:12;;;;;;;0.10;0.10;;;16.00;99.90;;;;;;4894123;29;20197;-89
2022/08/31 07:07:38;;;;;;;0.10;0.10;;;16.10;99.90;;;;;;4908815;29;21118;-89
2022/08/31 07:10:07;;;;;;;0.10;0.10;;;16.30;99.90;;;;;;4894288;29;20544;-90
2022/08/31 07:12:33;;;;;;;0.10;0.10;;;16.40;99.90;;;;;;4894491;29;20961;-89
2022/08/31 07:14:58;;;;;;;0.10;0.10;;;16.60;99.90;;;;;;4884645;29;20494;-89
2022/08/31 07:17:24;;;;;;;0.10;0.10;;;16.80;99.90;;;;;;4891424;29;20559;-88
2022/08/31 07:19:50;;;;;;;0.10;0.10;;;17.00;99.90;;;;;;4892248;29;20654;-87
2022/08/31 07:22:15;;;;;;;0.10;0.10;;;17.10;99.90;;;;;;4894283;29;20189;-87
2022/08/31 07:24:41;;;;;;;0.10;0.10;;;17.10;99.90;;;;;;4895527;29;20193;-88
2022/08/31 07:27:09;;;;;;;0.10;0.10;;;17.20;99.90;;;;;;4910767;29;20774;-88
2022/08/31 07:29:40;;;;;;;0.10;0.10;;;17.00;99.90;;;;;;4893232;29;20672;-87
2022/08/31 07:32:08;;;;;;;0.10;0.10;;;17.20;99.90;;;;;;4907702;29;20465;-88
2022/08/31 07:34:35;;;;;;;0.10;0.10;;;17.30;99.90;;;;;;4898555;29;20597;-88
2022/08/31 07:42:42;;;;;;;0.10;0.10;;;18.10;99.90;;;;;;4894519;29;20447;-88
2022/08/31 07:45:12;;;;;;;0.10;0.10;;;18.30;99.90;;;;;;4888988;29;20475;-89
2022/08/31 07:47:43;;;;;;;0.10;0.10;;;18.50;99.90;;;;;;4888050;29;20429;-87
2022/08/31 07:50:09;;;;;;;0.10;0.10;;;18.60;99.90;;;;;;4892162;29;20529;-88
2022/08/31 07:52:45;;;;;;;0.10;0.10;;;18.80;99.90;;;;;;4904340;29;21064;-87
2022/08/31 07:55:11;;;;;;;0.10;0.10;;;18.70;99.90;;;;;;4893197;29;20299;-87
2022/08/31 07:57:42;;;;;;;0.10;0.10;;;18.40;99.90;;;;;;4887135;29;20445;-89
2022/08/31 08:00:18;;;;;;;0.10;0.00;;;17.90;99.90;;;;;;4890787;29;20196;-88
2022/08/31 08:02:47;;;;;;;0.10;0.10;;;17.50;99.90;;;;;;4892595;29;20451;-85
2022/08/31 08:05:19;;;;;;;0.10;0.10;;;17.20;99.90;;;;;;4894971;29;20453;-90
2022/08/31 08:07:47;;;;;;;0.10;0.10;;;17.00;99.90;;;;;;4885030;29;20485;-89
2022/08/31 08:10:14;;;;;;;0.10;0.10;;;16.90;99.90;;;;;;4889472;29;20453;-89
2022/08/31 08:12:47;;;;;;;0.10;0.10;;;16.80;99.90;;;;;;4886872;29;20453;-91
2022/08/31 08:15:13;;;;;;;0.10;0.10;;;16.70;99.90;;;;;;4891463;29;20496;-96
2022/08/31 08:17:39;;;;;;;0.10;0.10;;;16.60;99.90;;;;;;4958293;23;20534;-96
2022/08/31 08:20:06;;;;;;;0.10;0.10;;;16.60;99.90;;;;;;4908101;29;20464;-84
2022/08/31 08:22:31;;;;;;;0.10;0.10;;;16.60;99.90;;;;;;4905423;29;20445;-88
2022/08/31 08:24:58;;;;;;;0.10;0.10;;;16.60;99.90;;;;;;4891469;29;20461;-88
2022/08/31 08:27:24;;;;;;;0.10;0.10;;;16.70;99.90;;;;;;4899966;29;20673;-88
2022/08/31 08:29:50;;;;;;;0.10;0.10;;;16.70;99.90;;;;;;4895638;29;20429;-88
2022/08/31 08:32:17;;;;;;;0.10;0.10;;;16.80;99.90;;;;;;4904046;29;20204;-88
2022/08/31 08:34:43;;;;;;;0.10;0.10;;;16.80;99.90;;;;;;4885524;29;20239;-88
2022/08/31 08:37:10;;;;;;;0.10;0.10;;;16.90;99.90;;;;;;4894974;29;20548;-87
2022/08/31 08:39:37;;;;;;;0.10;0.10;;;17.00;99.90;;;;;;4894627;29;20652;-87
2022/08/31 08:42:07;;;;;;;0.10;0.10;;;17.70;99.90;;;;;;4894815;29;20453;-87
2022/08/31 08:44:34;;;;;;;0.10;0.10;;;18.40;99.90;;;;;;4893866;29;20824;-90
2022/08/31 08:47:03;;;;;;;0.10;0.10;;;19.00;99.90;;;;;;4908543;29;20886;-89
2022/08/31 08:49:39;;;;;;;0.10;0.10;;;19.50;99.90;;;;;;4891478;29;20453;-89
2022/08/31 08:52:11;;;;;;;0.10;0.10;;;19.80;99.90;;;;;;4894631;29;21101;-90
2022/08/31 08:54:43;;;;;;;0.10;0.10;;;20.00;99.90;;;;;;4891949;29;20488;-90
2022/08/31 08:57:25;;;;;;;0.10;0.00;;;20.40;99.90;;;;;;4891667;29;20502;-88
2022/08/31 08:59:55;;;;;;;0.10;0.10;;;20.60;99.90;;;;;;4893139;29;20452;-89
2022/08/31 09:02:27;;;;;;;0.10;0.00;;;20.50;99.90;;;;;;4901342;29;20952;-88
2022/08/31 09:05:09;;;;;;;0.10;0.00;;;20.70;99.90;;;;;;4902540;29;20432;-88
2022/08/31 09:07:59;;;;;;;0.10;0.00;;;20.70;99.90;;;;;;4907223;29;20445;-89
2022/08/31 09:10:33;;;;;;;0.10;0.00;;;21.00;99.90;;;;;;4897970;29;20916;-87
2022/08/31 09:13:11;;;;;;;0.10;0.00;;;21.10;99.90;;;;;;4890773;29;20546;-89
2022/08/31 09:15:56;;;;;;;0.10;0.00;;;21.40;99.90;;;;;;4892906;29;20500;-89
2022/08/31 09:18:35;;;;;;;0.10;0.00;;;21.50;99.90;;;;;;4890803;29;20868;-86
2022/08/31 09:21:23;;;;;;;0.10;0.00;;;21.70;99.90;;;;;;4893730;29;20894;-89
2022/08/31 09:24:00;;;;;;;0.10;0.00;;;21.90;99.90;;;;;;4887442;29;20864;-87
2022/08/31 09:26:32;;;;;;;0.10;0.00;;;21.80;99.90;;;;;;4894192;29;20512;-90
2022/08/31 09:28:59;;;;;;;0.10;0.00;;;21.90;99.90;;;;;;4901324;29;20452;-88
2022/08/31 09:31:36;;;;;;;0.10;0.10;;;22.10;99.90;;;;;;4899230;29;20476;-87
2022/08/31 09:34:03;;;;;;;0.10;0.00;;;22.20;99.90;;;;;;4896007;29;20470;-87
2022/08/31 09:36:39;;;;;;;0.10;0.00;;;22.50;99.90;;;;;;4896587;29;20489;-91
2022/08/31 09:39:17;;;;;;;0.10;0.00;;;22.60;99.90;;;;;;4903701;29;20803;-87
2022/08/31 09:41:43;;;;;;;0.10;0.00;;;22.50;99.90;;;;;;4905515;29;20490;-89
2022/08/31 09:44:23;;;;;;;0.10;0.00;;;22.40;99.90;;;;;;4895580;29;20456;-88
2022/08/31 09:46:52;;;;;;;0.10;0.00;;;22.60;99.90;;;;;;4896024;29;20820;-88
2022/08/31 09:49:20;;;;;;;0.10;0.00;;;22.60;99.90;;;;;;4898905;29;20457;-89
2022/08/31 09:51:47;;;;;;;0.10;0.00;;;22.70;99.90;;;;;;4896002;29;20985;-89
2022/08/31 09:57:05;;;;;;;0.10;0.00;;;23.00;99.90;;;;;;4896884;29;20548;-89
2022/08/31 09:59:36;;;;;;;0.10;0.10;;;23.10;99.90;;;;;;4895695;29;20456;-89
2022/08/31 10:02:10;;;;;;;0.10;0.00;;;23.20;99.90;;;;;;4897187;29;20573;-90
2022/08/31 10:04:46;;;;;;;0.10;0.00;;;22.60;99.90;;;;;;4896705;29;20512;-88
2022/08/31 10:07:42;;;;;;;0.10;0.00;;;23.10;99.90;;;;;;4895490;29;20464;-88
2022/08/31 10:10:22;;;;;;;0.10;0.00;;;23.90;99.90;;;;;;4887585;29;20445;-89
2022/08/31 10:12:59;;;;;;;0.10;0.00;;;24.10;99.90;;;;;;4895452;29;20949;-89
2022/08/31 10:15:29;;;;;;;0.10;0.00;;;24.50;99.90;;;;;;4891913;29;21024;-88
2022/08/31 10:18:21;;;;;;;0.10;0.00;;;24.70;99.90;;;;;;4907724;29;20480;-88
2022/08/31 10:20:54;;;;;;;0.10;0.00;;;24.80;99.90;;;;;;4895490;29;20528;-89
2022/08/31 10:23:53;;;;;;;0.10;0.00;;;24.70;99.90;;;;;;4895917;29;20448;-88
2022/08/31 10:26:34;;;;;;;0.10;0.00;;;25.00;99.90;;;;;;4884179;29;20812;-90
2022/08/31 10:29:05;;;;;;;0.10;0.00;;;25.40;99.90;;;;;;4893056;29;20872;-88
2022/08/31 10:31:44;;;;;;;0.10;0.00;;;25.60;99.90;;;;;;4900177;29;20828;-88
2022/08/31 10:37:17;;;;;;;0.10;0.00;;;25.60;99.90;;;;;;4894200;29;20505;-91
2022/08/31 10:39:50;;;;;;;0.10;0.00;;;25.50;99.90;;;;;;4894870;29;20449;-93
2022/08/31 10:42:28;;;;;;;0.10;0.00;;;25.90;99.90;;;;;;4883988;29;20469;-90
2022/08/31 10:45:06;;;;;;;0.10;0.00;;;25.70;99.90;;;;;;4892560;29;20441;-93
2022/08/31 10:47:39;;;;;;;0.10;0.00;;;26.10;99.90;;;;;;4910420;29;20456;-90
2022/08/31 10:50:04;;;;;;;0.10;0.00;;;26.50;99.90;;;;;;4896339;29;20456;-87
2022/08/31 10:52:47;;;;;;;0.10;0.00;;;26.00;99.90;;;;;;4896505;29;20461;-90
2022/08/31 10:55:28;;;;;;;0.10;0.00;;;25.70;99.90;;;;;;4894708;29;20718;-90
2022/08/31 10:58:10;;;;;;;0.10;0.00;;;26.30;99.90;;;;;;4912974;29;20622;-88
2022/08/31 11:01:18;;;;;;;0.10;0.00;;;26.20;99.90;;;;;;4893844;29;20444;-89
2022/08/31 11:04:12;;;;;;;0.10;0.00;;;26.60;99.90;;;;;;4889430;29;20532;-91
2022/08/31 11:06:45;;;;;;;0.10;0.00;;;26.80;99.90;;;;;;4893553;29;20455;-92
2022/08/31 11:10:00;;;;;;;0.10;0.00;;;27.20;99.90;;;;;;4892086;29;21002;-89
2022/08/31 11:12:39;;;;;;;0.10;0.00;;;27.30;99.90;;;;;;4821139;29;20451;-92
2022/08/31 11:15:08;;;;;;;0.10;0.00;;;27.20;99.90;;;;;;4889955;29;20580;-89
2022/08/31 11:17:54;;;;;;;0.10;0.00;;;26.90;99.90;;;;;;4895682;29;20830;-91
2022/08/31 11:20:50;;;;;;;0.10;0.00;;;27.20;99.90;;;;;;4895955;29;20594;-90
2022/08/31 11:23:41;;;;;;;0.10;0.00;;;27.40;99.90;;;;;;4894384;29;21074;-90
2022/08/31 11:26:39;;;;;;;0.10;0.00;;;27.90;99.90;;;;;;4901355;29;20455;-94
2022/08/31 11:29:14;;;;;;;0.10;0.00;;;27.40;99.90;;;;;;4898944;29;20485;-92
2022/08/31 11:31:40;;;;;;;0.10;0.00;;;28.00;99.90;;;;;;4897433;29;20488;-89
2022/08/31 11:34:24;;;;;;;0.10;0.00;;;27.70;99.80;;;;;;4896360;29;20500;-92
2022/08/31 11:36:59;;;;;;;0.10;0.00;;;28.20;99.90;;;;;;4900576;29;20466;-85
2022/08/31 11:39:35;;;;;;;0.10;0.00;;;28.30;99.90;;;;;;4889881;29;20528;-88
2022/08/31 11:42:32;;;;;;;0.10;0.00;;;28.70;99.80;;;;;;4892165;29;20437;-90
2022/08/31 11:45:25;;;;;;;0.10;0.00;;;28.90;98.70;;;;;;4882270;29;20977;-89
2022/08/31 11:47:53;;;;;;;0.10;0.00;;;28.80;99.10;;;;;;4889728;29;20454;-85
2022/08/31 11:50:22;;;;;;;0.10;0.00;;;28.60;98.40;;;;;;4894935;29;20464;-85
2022/08/31 11:52:56;;;;;;;0.10;0.00;;;28.80;97.90;;;;;;4910161;29;20449;-85
2022/08/31 11:55:44;;;;;;;0.10;0.00;;;29.10;99.10;;;;;;4894158;29;20822;-88
2022/08/31 11:58:24;;;;;;;0.10;0.00;;;29.20;97.60;;;;;;4893621;29;20501;-86
2022/08/31 12:01:13;;;;;;;0.00;0.00;;;29.50;97.90;;;;;;4892640;29;20497;-85
2022/08/31 12:04:13;;;;;;;0.10;0.00;;;29.60;97.80;;;;;;4890077;29;20445;-85
2022/08/31 12:06:39;;;;;;;0.10;0.00;;;29.30;97.60;;;;;;4894722;29;20461;-89
2022/08/31 12:09:23;;;;;;;0.10;0.00;;;28.40;97.90;;;;;;4893371;29;20473;-90
2022/08/31 12:11:59;;;;;;;0.10;0.00;;;28.90;97.60;;;;;;4892875;29;20688;-91
2022/08/31 12:14:39;;;;;;;0.10;0.00;;;28.70;97.80;;;;;;4895070;29;20592;-88
2022/08/31 12:17:37;;;;;;;0.10;0.00;;;29.30;97.40;;;;;;4894636;29;20453;-88
2022/08/31 12:20:30;;;;;;;0.10;0.00;;;29.20;96.80;;;;;;4902732;29;20461;-90
2022/08/31 12:23:34;;;;;;;0.10;0.00;;;29.60;96.60;;;;;;4897714;29;20481;-89
2022/08/31 12:26:18;;;;;;;0.10;0.00;;;29.80;96.00;;;;;;4879439;29;20487;-88
2022/08/31 12:28:46;;;;;;;0.10;0.00;;;29.30;96.20;;;;;;4892112;29;20463;-89
2022/08/31 12:31:16;;;;;;;0.10;0.00;;;29.70;96.50;;;;;;4889228;29;20481;-87
2022/08/31 12:34:00;;;;;;;0.10;0.00;;;29.70;95.30;;;;;;4883298;29;20468;-90
2022/08/31 12:36:29;;;;;;;0.10;0.00;;;30.00;96.00;;;;;;4892113;29;20548;-85
2022/08/31 12:39:25;;;;;;;0.10;0.00;;;29.80;96.30;;;;;;4890175;29;20516;-86
2022/08/31 12:41:55;;;;;;;0.10;0.00;;;29.00;95.00;;;;;;4877878;29;20529;-86
2022/08/31 12:44:30;;;;;;;0.10;0.00;;;28.70;95.70;;;;;;4892529;29;20476;-85
2022/08/31 12:47:33;;;;;;;0.10;0.00;;;29.00;95.60;;;;;;4887757;29;20456;-87
2022/08/31 12:50:20;;;;;;;0.10;0.00;;;29.70;94.90;;;;;;4877828;29;20449;-85
2022/08/31 12:53:20;;;;;;;0.10;0.00;;;29.40;94.30;;;;;;4889383;29;20453;-87
2022/08/31 12:55:58;;;;;;;0.10;0.00;;;28.20;95.70;;;;;;4902688;29;20539;-85
2022/08/31 12:59:05;;;;;;;0.10;0.00;;;28.90;95.00;;;;;;4891070;29;20460;-85
2022/08/31 13:01:31;;;;;;;0.10;0.00;;;29.10;94.20;;;;;;4903397;29;20497;-86
2022/08/31 13:04:02;;;;;;;0.10;0.00;;;29.70;94.60;;;;;;4898424;29;20938;-87
2022/08/31 13:06:34;;;;;;;0.10;0.00;;;29.70;94.20;;;;;;4895486;29;20193;-87
2022/08/31 13:09:01;;;;;;;0.10;0.00;;;29.80;93.10;;;;;;4892278;29;20723;-87
2022/08/31 13:11:41;;;;;;;0.10;0.00;;;29.50;93.00;;;;;;4896286;29;20472;-87
2022/08/31 13:14:06;;;;;;;0.10;0.00;;;30.10;92.30;;;;;;4894462;29;20456;-86
2022/08/31 13:16:32;;;;;;;0.10;0.00;;;30.30;92.00;;;;;;4895978;29;20472;-87
2022/08/31 13:19:05;;;;;;;0.10;0.00;;;30.10;91.70;;;;;;4896820;29;20239;-86
2022/08/31 13:21:33;;;;;;;0.10;0.00;;;30.40;91.60;;;;;;4914522;29;20539;-87
2022/08/31 13:24:07;;;;;;;0.10;0.00;;;30.10;91.60;;;;;;4915892;29;20537;-86